Thunder radar more information blitzortung!


avis per Pluja more information rain snow radar


Visita la nostra xarxa de llocs de meteo:

Template documentation
and downloads

And another site



Rain From: 17-10-2018 23:00 Until: 18-10-2018 16:59 warning for: Rain Level: Yellow info button

Pagina Historial Weather Underground text

Diari Resum Marc 14, 2016 Unitats:  Mètric    Imperial   Tant
« Previous Dia
SegĂźent Dia »
Diari Setmana Mensual Anual Personalitzada
  Maxima: Minima: Media:
Temperatura: -17.8 °C -15.8 °C -12.4 °C
Punt de rosada: -17.8 °C -18.3 °C -16.1 °C
Humitat: Humidity % 53 % 64 %
Wind Speed: 0 km/h 0 km/h 10.1 km/h
RĂ fegues de vent: 0 km/h - -
Vent:- - ESE
Pression baro: 0 hPa 34533.8 hPa -
Precipitacions: 0 mm    
Historical Graphs
 
 
Dades de taula per Marc 14, 2016
Temps Temperatura Punt de rosada Pression baro Vent Wind Speed RĂ fegues de vent Humitat Rainfall Rate (Hourly)
-17.8 °C -17.8 °C 0 hPa Calm     Humidity % 0 mm
00:00 -15.4 °C -18.3 °C 34567.7 hPa WSW 2.6 km/h 5.1 km/h 69 % 0 mm
00:10 -15.4 °C -18.3 °C 34567.7 hPa WSW 2.6 km/h 5.1 km/h 69 % 0 mm
00:20 -15.4 °C -18.3 °C 34533.8 hPa WSW 2.6 km/h 5.1 km/h 69 % 0 mm
00:30 -15.6 °C -18.3 °C 34567.7 hPa SW 2.6 km/h 5.1 km/h 70 % 0 mm
00:50 -15.7 °C -18.3 °C 34567.7 hPa South 2.6 km/h 5.1 km/h 72 % 0 mm
01:05 -15.8 °C -18.2 °C 34567.7 hPa SE 2.6 km/h 5.1 km/h 73 % 0 mm
01:15 -15.7 °C -18.2 °C 34533.8 hPa Calm     73 % 0 mm
01:25 -15.7 °C -18.2 °C 34533.8 hPa Calm     73 % 0 mm
01:35 -15.7 °C -18.2 °C 34533.8 hPa WNW 5.1 km/h 5.1 km/h 73 % 0 mm
01:45 -15.7 °C -18.2 °C 34533.8 hPa South 2.6 km/h 2.6 km/h 72 % 0 mm
02:05 -15.6 °C -18.2 °C 34533.8 hPa SW 5.1 km/h 7.7 km/h 71 % 0 mm
02:15 -15.4 °C -17.9 °C 34567.7 hPa SW 5.1 km/h 7.7 km/h 73 % 0 mm
02:25 -15.2 °C -17.6 °C 34567.7 hPa SW 5.1 km/h 7.7 km/h 74 % 0 mm
02:35 -14.9 °C -17.3 °C 34601.5 hPa SW 2.6 km/h 5.1 km/h 74 % 0 mm
02:45 -14.4 °C -16.9 °C 34601.5 hPa East 2.6 km/h 5.1 km/h 73 % 0 mm
02:55 -14.1 °C -16.8 °C 34601.5 hPa NE 2.6 km/h 7.7 km/h 71 % 0 mm
03:15 -13.7 °C -16.7 °C 34567.7 hPa NNE 2.6 km/h 7.7 km/h 68 % 0 mm
03:25 -13.3 °C -16.5 °C 34567.7 hPa NNE 7.7 km/h 15.6 km/h 67 % 0 mm
03:35 -13 °C -16.3 °C 34567.7 hPa NE 2.6 km/h 5.1 km/h 66 % 0 mm
03:45 -12.6 °C -16 °C 34601.5 hPa NE 7.7 km/h 7.7 km/h 65 % 0 mm
03:55 -12.3 °C -15.9 °C 34601.5 hPa NE 2.6 km/h 5.1 km/h 64 % 0 mm
04:05 -12 °C -15.7 °C 34601.5 hPa NNE 5.1 km/h 10.3 km/h 63 % 0 mm
04:25 -11.9 °C -16.1 °C 34601.5 hPa NE 5.1 km/h 10.3 km/h 60 % 0 mm
04:45 -11.7 °C -16 °C 34567.7 hPa NE 7.7 km/h 10.3 km/h 59 % 0 mm
05:15 -10.9 °C -15.4 °C 34601.5 hPa East 20.8 km/h 20.8 km/h 58 % 0 mm
05:25 -11 °C -15.6 °C 34601.5 hPa East 12.9 km/h 18.2 km/h 57 % 0 mm
05:35 -11 °C -15.6 °C 34601.5 hPa ESE 15.6 km/h 20.8 km/h 57 % 0 mm
05:45 -11 °C -15.7 °C 34601.5 hPa ESE 18.2 km/h 18.2 km/h 56 % 0 mm
05:55 -11 °C -15.7 °C 34601.5 hPa East 7.7 km/h 18.2 km/h 56 % 0 mm
06:05 -11 °C -15.7 °C 34601.5 hPa East 15.6 km/h 25.9 km/h 56 % 0 mm
06:15 -10.9 °C -15.7 °C 34601.5 hPa East 15.6 km/h 28.5 km/h 56 % 0 mm
06:25 -10.9 °C -15.7 °C 34601.5 hPa East 20.8 km/h 20.8 km/h 56 % 0 mm
06:35 -10.9 °C -15.7 °C 34601.5 hPa East 18.2 km/h 25.9 km/h 56 % 0 mm
06:40 -10.9 °C -15.8 °C 34601.5 hPa East 23.3 km/h 25.9 km/h 55 % 0 mm
12:46 -10.8 °C -15.6 °C 34601.5 hPa ESE 23.8 km/h 23.8 km/h 56 % 0 mm
12:51 -10.8 °C -15.5 °C 34601.5 hPa ENE 18.3 km/h 18.3 km/h 56 % 0 mm
12:56 -10.7 °C -15.6 °C 34601.5 hPa ENE 26.9 km/h 26.9 km/h 55 % 0 mm
13:01 -10.7 °C -15.6 °C 34601.5 hPa ESE 29.8 km/h 29.8 km/h 55 % 0 mm
13:06 -10.7 °C -15.6 °C 34601.5 hPa SE 26.9 km/h 26.9 km/h 55 % 0 mm
13:11 -10.5 °C -15.4 °C 34601.5 hPa ESE 16.6 km/h 16.6 km/h 55 % 0 mm
13:16 -10.4 °C -15.5 °C 34601.5 hPa WNW 26.9 km/h 26.9 km/h 54 % 0 mm
13:21 -10.4 °C -15.5 °C 34601.5 hPa East 23.8 km/h 23.8 km/h 54 % 0 mm
13:26 -10.3 °C -15.4 °C 34567.7 hPa ESE 35.7 km/h 35.7 km/h 54 % 0 mm
13:31 -10.2 °C -15.4 °C 34567.7 hPa ENE 23.8 km/h 23.8 km/h 53 % 0 mm
13:36 -10.3 °C -15.5 °C 34567.7 hPa ESE 38.8 km/h 38.8 km/h 53 % 0 mm
13:41 -10.3 °C -15.5 °C 34601.5 hPa ESE 26.9 km/h 26.9 km/h 53 % 0 mm
13:46 -10.2 °C -15.4 °C 34601.5 hPa East 23.8 km/h 23.8 km/h 53 % 0 mm
13:51 -10.4 °C -15.6 °C 34601.5 hPa South 38.8 km/h 38.8 km/h 53 % 0 mm
14:01 -10.6 °C -15.8 °C 34601.5 hPa East 17.9 km/h 17.9 km/h 53 % 0 mm
14:06 -10.5 °C -15.7 °C 34601.5 hPa ESE 20.9 km/h 20.9 km/h 53 % 0 mm
14:11 -10.4 °C -15.7 °C 34601.5 hPa East 15 km/h 15 km/h 53 % 0 mm
14:16 -10.4 °C -15.6 °C 34601.5 hPa ESE 22 km/h 22 km/h 53 % 0 mm
14:21 -10.4 °C -15.7 °C 34601.5 hPa ESE 20.9 km/h 20.9 km/h 53 % 0 mm
14:26 -10.4 °C -15.6 °C 34601.5 hPa ENE 20.9 km/h 20.9 km/h 53 % 0 mm
14:31 -10.5 °C -15.7 °C 34601.5 hPa East 29.8 km/h 29.8 km/h 53 % 0 mm
14:36 -10.6 °C -15.8 °C 34601.5 hPa East 29.8 km/h 29.8 km/h 53 % 0 mm
14:41 -10.5 °C -15.7 °C 34601.5 hPa ESE 20.9 km/h 20.9 km/h 53 % 0 mm
14:51 -10.7 °C -15.9 °C 34601.5 hPa East 25.9 km/h 25.9 km/h 53 % 0 mm
14:56 -10.6 °C -15.8 °C 34567.7 hPa ENE 26.9 km/h 26.9 km/h 53 % 0 mm
15:01 -10.6 °C -15.8 °C 34567.7 hPa ESE 26.9 km/h 26.9 km/h 53 % 0 mm
15:06 -10.6 °C -15.8 °C 34567.7 hPa East 26.9 km/h 26.9 km/h 53 % 0 mm
15:11 -10.6 °C -15.8 °C 34567.7 hPa ESE 25.1 km/h 25.1 km/h 53 % 0 mm
15:16 -10.6 °C -15.8 °C 34567.7 hPa ESE 26.9 km/h 26.9 km/h 53 % 0 mm
15:21 -10.6 °C -15.8 °C 34567.7 hPa East 23.8 km/h 23.8 km/h 53 % 0 mm
15:26 -10.7 °C -15.9 °C 34533.8 hPa ENE 29.8 km/h 29.8 km/h 53 % 0 mm
15:31 -10.7 °C -15.9 °C 34533.8 hPa ESE 20.9 km/h 20.9 km/h 53 % 0 mm
15:36 -10.8 °C -15.9 °C 34533.8 hPa East 23.8 km/h 23.8 km/h 53 % 0 mm
15:41 -10.7 °C -15.8 °C 34567.7 hPa East 26.9 km/h 26.9 km/h 54 % 0 mm
15:46 -10.7 °C -15.8 °C 34567.7 hPa SW 15 km/h 15 km/h 54 % 0 mm
15:51 -10.7 °C -15.8 °C 34567.7 hPa East 20.9 km/h 20.9 km/h 54 % 0 mm
15:56 -10.7 °C -15.6 °C 34567.7 hPa SSW 11.9 km/h 11.9 km/h 55 % 0 mm
16:01 -10.7 °C -15.6 °C 34567.7 hPa South 20.9 km/h 20.9 km/h 55 % 0 mm
16:11 -10.7 °C -15.6 °C 34567.7 hPa ESE 15 km/h 15 km/h 55 % 0 mm
16:16 -10.8 °C -15.7 °C 34567.7 hPa ESE 20.9 km/h 20.9 km/h 55 % 0 mm
16:26 -10.9 °C -15.5 °C 34601.5 hPa ESE 26.9 km/h 26.9 km/h 57 % 0 mm
16:31 -11.1 °C -15.5 °C 34601.5 hPa ESE 26.9 km/h 26.9 km/h 58 % 0 mm
16:36 -11.1 °C -15.5 °C 34601.5 hPa SSE 18.3 km/h 18.3 km/h 58 % 0 mm
16:41 -11.2 °C -15.5 °C 34567.7 hPa East 18.3 km/h 18.3 km/h 59 % 0 mm
16:46 -11.2 °C -15.5 °C 34567.7 hPa SSE 20.9 km/h 20.9 km/h 59 % 0 mm
16:51 -11.1 °C -15.3 °C 34567.7 hPa SSE 14 km/h 14 km/h 60 % 0 mm
16:56 -11.2 °C -15.3 °C 34567.7 hPa ESE 15 km/h 15 km/h 60 % 0 mm
17:01 -11.3 °C -15.5 °C 34567.7 hPa ESE 20.9 km/h 20.9 km/h 60 % 0 mm
17:06 -11.4 °C -15.4 °C 34567.7 hPa SSE 20.9 km/h 20.9 km/h 61 % 0 mm
17:11 -11.4 °C -15.4 °C 34533.8 hPa East 17.9 km/h 17.9 km/h 61 % 0 mm
17:16 -11.4 °C -15.4 °C 34533.8 hPa ESE 26.9 km/h 26.9 km/h 61 % 0 mm
17:21 -11.4 °C -15.4 °C 34533.8 hPa East 11.9 km/h 11.9 km/h 61 % 0 mm
17:26 -11.3 °C -15.4 °C 34567.7 hPa NE 15 km/h 15 km/h 61 % 0 mm
17:31 -11.4 °C -15.4 °C 34567.7 hPa East 15 km/h 15 km/h 61 % 0 mm
17:36 -11.4 °C -15.6 °C 34567.7 hPa ENE 11.9 km/h 11.9 km/h 60 % 0 mm
17:41 -11.4 °C -15.6 °C 34567.7 hPa ESE 12.7 km/h 12.7 km/h 60 % 0 mm
17:46 -11.5 °C -15.7 °C 34567.7 hPa NE 15 km/h 15 km/h 60 % 0 mm
17:51 -11.5 °C -15.5 °C 34567.7 hPa East 9.3 km/h 9.3 km/h 61 % 0 mm
17:55 -13.4 °C -16.2 °C 34601.5 hPa NE 2.6 km/h 5.1 km/h 70 % 0 mm
17:56 -11.6 °C -15.6 °C 34567.7 hPa ESE 11.9 km/h 11.9 km/h 61 % 0 mm
18:01 -11.6 °C -15.6 °C 34567.7 hPa ENE 11.9 km/h 11.9 km/h 61 % 0 mm
18:05 -13.5 °C -16.3 °C 34601.5 hPa Calm   2.6 km/h 70 % 0 mm
18:06 -11.6 °C -15.6 °C 34567.7 hPa ENE 9 km/h 9 km/h 61 % 0 mm
18:11 -11.6 °C -15.7 °C 34567.7 hPa East 15 km/h 15 km/h 61 % 0 mm
18:15 -13.7 °C -16.5 °C 34567.7 hPa Calm   5.1 km/h 70 % 0 mm
18:16 -11.6 °C -15.7 °C 34567.7 hPa East 9 km/h 9 km/h 61 % 0 mm
18:21 -11.7 °C -15.7 °C 34567.7 hPa ENE 9 km/h 9 km/h 61 % 0 mm
18:25 -13.8 °C -16.6 °C 34567.7 hPa Calm   2.6 km/h 70 % 0 mm
18:26 -11.7 °C -15.7 °C 34567.7 hPa ENE 9 km/h 9 km/h 61 % 0 mm
18:31 -11.7 °C -15.6 °C 34567.7 hPa NNE 6.3 km/h 6.3 km/h 62 % 0 mm
18:35 -13.7 °C -16.3 °C 34601.5 hPa Calm   5.1 km/h 72 % 0 mm
18:36 -11.7 °C -15.6 °C 34567.7 hPa ESE 9 km/h 9 km/h 62 % 0 mm
18:41 -11.7 °C -15.6 °C 34567.7 hPa ENE 6 km/h 6 km/h 62 % 0 mm
18:45 -13.7 °C -16.2 °C 34601.5 hPa Calm     73 % 0 mm
18:46 -11.7 °C -15.6 °C 34567.7 hPa ENE 9.3 km/h 9.3 km/h 62 % 0 mm
18:51 -11.7 °C -15.6 °C 34567.7 hPa ENE 6 km/h 6 km/h 62 % 0 mm
18:55 -13.7 °C -16.2 °C 34601.5 hPa NW 2.6 km/h 2.6 km/h 73 % 0 mm
18:56 -11.7 °C -15.6 °C 34567.7 hPa East 6 km/h 6 km/h 62 % 0 mm
19:01 -11.7 °C -15.6 °C 34567.7 hPa ENE 9 km/h 9 km/h 62 % 0 mm
19:05 -13.7 °C -16.2 °C 34601.5 hPa NNE 2.6 km/h 5.1 km/h 73 % 0 mm
19:06 -11.7 °C -15.6 °C 34567.7 hPa ESE 6 km/h 6 km/h 62 % 0 mm
19:11 -11.8 °C -15.7 °C 34601.5 hPa East 6 km/h 6 km/h 62 % 0 mm
19:15 -13.8 °C -16.4 °C 34601.5 hPa Calm   2.6 km/h 72 % 0 mm
19:16 -11.8 °C -15.7 °C 34601.5 hPa ENE 3.7 km/h 3.7 km/h 62 % 0 mm
19:21 -11.8 °C -15.7 °C 34601.5 hPa ENE 3.1 km/h   62 % 0 mm
19:25 -13.8 °C -16.3 °C 34601.5 hPa Calm   5.1 km/h 73 % 0 mm
19:26 -11.8 °C -15.7 °C 34601.5 hPa NNE 6 km/h 6 km/h 62 % 0 mm
19:31 -11.8 °C -15.7 °C 34601.5 hPa ENE 3.1 km/h 3.7 km/h 62 % 0 mm
19:36 -11.8 °C -15.7 °C 34601.5 hPa NE 6 km/h 6 km/h 62 % 0 mm
19:41 -11.9 °C -15.8 °C 34567.7 hPa ENE 6.3 km/h 6.3 km/h 62 % 0 mm
19:45 -13.9 °C -16.5 °C 34601.5 hPa NNE 2.6 km/h 2.6 km/h 72 % 0 mm
19:46 -11.9 °C -15.8 °C 34567.7 hPa NE 6 km/h 6 km/h 62 % 0 mm
19:51 -11.9 °C -15.8 °C 34567.7 hPa NNE 6 km/h 6 km/h 62 % 0 mm
19:55 -13.9 °C -16.4 °C 34601.5 hPa Calm   2.6 km/h 73 % 0 mm
19:56 -11.9 °C -15.8 °C 34567.7 hPa NE 6 km/h 6 km/h 62 % 0 mm
20:01 -11.9 °C -15.7 °C 34567.7 hPa East 5.6 km/h   63 % 0 mm
20:05 -13.9 °C -16.3 °C 34601.5 hPa Calm     74 % 0 mm
20:06 -11.9 °C -15.7 °C 34567.7 hPa NNE 6 km/h 6 km/h 63 % 0 mm
20:11 -11.9 °C -15.7 °C 34601.5 hPa NE 3.1 km/h 3.7 km/h 63 % 0 mm
20:15 -13.9 °C -16.4 °C 34601.5 hPa SW 5.1 km/h 5.1 km/h 73 % 0 mm
20:16 -12 °C -15.7 °C 34601.5 hPa NNE 6.3 km/h 6.3 km/h 63 % 0 mm
20:21 -12 °C -15.7 °C 34601.5 hPa NNE 9 km/h 9 km/h 63 % 0 mm
20:25 -13.9 °C -16.3 °C 34601.5 hPa Calm   5.1 km/h 74 % 0 mm
20:26 -12 °C -15.6 °C 34601.5 hPa NNE 9 km/h 9.3 km/h 64 % 0 mm
20:31 -12 °C -15.6 °C 34601.5 hPa NE 9 km/h 9 km/h 64 % 0 mm
20:35 -13.9 °C -16.2 °C 34567.7 hPa Calm   2.6 km/h 75 % 0 mm
20:36 -12.1 °C -15.7 °C 34601.5 hPa NE 9.3 km/h 9.3 km/h 64 % 0 mm
20:41 -12.1 °C -15.7 °C 34601.5 hPa NNE 9.3 km/h 9.3 km/h 64 % 0 mm
20:45 -13.9 °C -16.3 °C 34567.7 hPa SW 2.6 km/h 2.6 km/h 74 % 0 mm
20:46 -12.1 °C -15.7 °C 34601.5 hPa ENE 6 km/h 6.3 km/h 64 % 0 mm
20:51 -12.2 °C -15.8 °C 34601.5 hPa ENE 3.1 km/h   64 % 0 mm
20:55 -13.9 °C -16.2 °C 34567.7 hPa Calm   5.1 km/h 75 % 0 mm
20:56 -12.3 °C -15.9 °C 34601.5 hPa Calm     64 % 0 mm
21:01 -12.3 °C -15.9 °C 34601.5 hPa Calm     64 % 0 mm
21:05 -13.9 °C -16.2 °C 34601.5 hPa Calm     75 % 0 mm
21:06 -12.4 °C -15.9 °C 34601.5 hPa NW 3.1 km/h 3.1 km/h 65 % 0 mm
21:11 -12.4 °C -15.9 °C 34601.5 hPa NNE 3.1 km/h 3.1 km/h 65 % 0 mm
21:15 -13.9 °C -16.2 °C 34601.5 hPa NE 7.7 km/h 7.7 km/h 75 % 0 mm
21:16 -12.4 °C -15.9 °C 34601.5 hPa Calm     65 % 0 mm
21:21 -12.5 °C -16 °C 34601.5 hPa NNE 3.1 km/h 3.1 km/h 65 % 0 mm
21:25 -13.9 °C -16.2 °C 34601.5 hPa Calm   10.3 km/h 76 % 0 mm
21:26 -12.5 °C -15.9 °C 34601.5 hPa NNE 3.1 km/h 3.1 km/h 66 % 0 mm
21:31 -12.6 °C -15.9 °C 34601.5 hPa NE 6 km/h 6 km/h 66 % 0 mm
21:35 -13.9 °C -16.2 °C 34601.5 hPa Calm   5.1 km/h 75 % 0 mm
21:36 -12.6 °C -15.9 °C 34601.5 hPa NNE 6.3 km/h 6.3 km/h 66 % 0 mm
21:41 -12.6 °C -15.9 °C 34601.5 hPa NNE 3.7 km/h 3.7 km/h 66 % 0 mm
21:45 -14 °C -16.3 °C 34567.7 hPa West 2.6 km/h 5.1 km/h 75 % 0 mm
21:46 -12.7 °C -16 °C 34601.5 hPa North 6.3 km/h 6.3 km/h 66 % 0 mm
21:51 -12.7 °C -16.1 °C 34601.5 hPa NW 6 km/h 6 km/h 66 % 0 mm
21:55 -14.2 °C -16.6 °C 34567.7 hPa WSW 5.1 km/h 7.7 km/h 74 % 0 mm
21:56 -12.8 °C -16.1 °C 34601.5 hPa ENE 6 km/h 6 km/h 66 % 0 mm
22:01 -12.8 °C -16.1 °C 34601.5 hPa NNE 3.1 km/h   66 % 0 mm
22:05 -14.3 °C -16.6 °C 34567.7 hPa SW 5.1 km/h 7.7 km/h 75 % 0 mm
22:06 -12.8 °C -16.2 °C 34601.5 hPa NNW 3.1 km/h 3.1 km/h 66 % 0 mm
22:11 -12.9 °C -16.2 °C 34601.5 hPa East 3.1 km/h   66 % 0 mm
22:15 -14.3 °C -16.4 °C 34567.7 hPa SW 5.1 km/h 7.7 km/h 77 % 0 mm
22:16 -12.9 °C -16.2 °C 34601.5 hPa NW 3.1 km/h 3.1 km/h 66 % 0 mm
22:21 -12.9 °C -16.2 °C 34601.5 hPa ENE 3.1 km/h   67 % 0 mm
22:25 -14.3 °C -16.3 °C 34567.7 hPa SW 2.6 km/h 5.1 km/h 77 % 0 mm
22:26 -12.9 °C -16.2 °C 34601.5 hPa NE 3.1 km/h 3.1 km/h 67 % 0 mm
22:31 -13 °C -16.2 °C 34601.5 hPa NE 3.1 km/h 3.1 km/h 67 % 0 mm
22:35 -14.2 °C -16.2 °C 34601.5 hPa Calm   2.6 km/h 78 % 0 mm
22:36 -13 °C -16.2 °C 34601.5 hPa NNE 6 km/h 6 km/h 67 % 0 mm
22:41 -13 °C -16.2 °C 34601.5 hPa ENE 6 km/h 6 km/h 67 % 0 mm
22:45 -14.2 °C -16.1 °C 34567.7 hPa Calm     79 % 0 mm
22:46 -13 °C -16.1 °C 34601.5 hPa NNE 9 km/h 9 km/h 68 % 0 mm
22:51 -13 °C -16.1 °C 34601.5 hPa ENE 9 km/h 9 km/h 68 % 0 mm
22:55 -14.2 °C -16.1 °C 34567.7 hPa Calm     79 % 0 mm
22:56 -13.1 °C -16.2 °C 34601.5 hPa NE 9 km/h 9 km/h 68 % 0 mm
23:01 -13.1 °C -16.2 °C 34601.5 hPa NNE 6 km/h 6 km/h 68 % 0 mm
23:05 -14.2 °C -16.1 °C 34567.7 hPa North 2.6 km/h 5.1 km/h 79 % 0 mm
23:06 -13.1 °C -16.2 °C 34601.5 hPa NE 6 km/h 6 km/h 68 % 0 mm
23:11 -13.2 °C -16.3 °C 34601.5 hPa NE 6 km/h 6 km/h 68 % 0 mm
23:15 -14.2 °C -16.1 °C 34567.7 hPa Calm   5.1 km/h 79 % 0 mm
23:16 -13.2 °C -16.2 °C 34601.5 hPa ENE 3.1 km/h 3.7 km/h 69 % 0 mm
23:21 -13.2 °C -16.2 °C 34601.5 hPa NNE 4.2 km/h 4.2 km/h 69 % 0 mm
23:25 -14.2 °C -16.2 °C 34567.7 hPa NE 2.6 km/h 2.6 km/h 78 % 0 mm
23:26 -13.3 °C -16.2 °C 34601.5 hPa ENE 3.1 km/h   69 % 0 mm
23:31 -13.3 °C -16.2 °C 34601.5 hPa NE 4.2 km/h   69 % 0 mm
23:35 -14.2 °C -16.2 °C 34567.7 hPa Calm   2.6 km/h 78 % 0 mm
23:36 -13.3 °C -16.3 °C 34601.5 hPa ENE 9 km/h 9 km/h 69 % 0 mm
23:41 -13.3 °C -16.2 °C 34601.5 hPa NNE 9 km/h 9 km/h 70 % 0 mm
23:45 -14.3 °C -16.3 °C 34533.8 hPa Calm   2.6 km/h 78 % 0 mm
23:55 -14.4 °C -16.4 °C 34533.8 hPa West 2.6 km/h 2.6 km/h 78 % 0 mm
Meteo Sesrovires
Elogis d' Weather Underground - 1.5 mb

Guio original per  Jim McMurry - jmcmurry@mwt.net Adaptat per a la plantilla per  Wim van der Kuil - Leuven-Template.eu

Trobareu la nostra informacio del temps tambe a:

Weather Underground

AWEKAS